createdAt,value
2014-07-29T06:06:13.009Z,100354
2014-07-29T06:06:31.275Z,100351
2014-07-29T06:06:48.870Z,100345
2014-07-29T06:07:06.464Z,100345
2014-07-29T06:07:24.042Z,100351
2014-07-29T06:07:41.638Z,100339
2014-07-29T06:07:59.216Z,100345
2014-07-29T06:08:17.435Z,100348
2014-07-29T06:08:34.406Z,100351
2014-07-29T06:08:51.359Z,100351
2014-07-29T06:09:08.952Z,100351
2014-07-29T06:09:27.171Z,100354
2014-07-29T06:09:44.767Z,100351
2014-07-29T06:10:02.345Z,100354
2014-07-29T06:10:20.564Z,100342
2014-07-29T06:10:37.535Z,100351
2014-07-29T06:10:55.753Z,100351
2014-07-29T06:11:13.972Z,100348
2014-07-29T06:11:32.175Z,100348
2014-07-29T06:11:49.771Z,100354
2014-07-29T06:12:06.724Z,100354
2014-07-29T06:12:24.318Z,100351
2014-07-29T06:12:41.914Z,100357
2014-07-29T06:12:59.492Z,100345
2014-07-29T06:13:17.085Z,100354
2014-07-29T06:13:34.664Z,100345
2014-07-29T06:13:51.633Z,100354
2014-07-29T06:14:09.852Z,100342
2014-07-29T06:14:28.071Z,100360
2014-07-29T06:14:45.652Z,100357
2014-07-29T06:15:03.246Z,100354
2014-07-29T06:15:20.824Z,100354
2014-07-29T06:15:38.418Z,100348
2014-07-29T06:15:56.637Z,100339
2014-07-29T06:16:44.953Z,100348
2014-07-29T06:17:01.922Z,100351
2014-07-29T06:17:20.140Z,100342
2014-07-29T06:17:37.734Z,100342
2014-07-29T06:17:54.689Z,100342
2014-07-29T06:18:12.283Z,100336
2014-07-29T06:18:30.002Z,100342
2014-07-29T06:18:47.596Z,100345
2014-07-29T06:19:05.190Z,100351
2014-07-29T06:19:22.143Z,100348
2014-07-29T06:19:39.737Z,100348
2014-07-29T06:19:57.317Z,100354
2014-07-29T06:20:15.536Z,100345
2014-07-29T06:20:33.755Z,100339
2014-07-29T06:20:51.348Z,100351
2014-07-29T06:21:08.945Z,100348
2014-07-29T06:21:26.539Z,100351
2014-07-29T06:21:44.133Z,100342
2014-07-29T06:22:01.728Z,100345
2014-07-29T06:22:18.682Z,100345
2014-07-29T06:22:35.635Z,100342
2014-07-29T06:22:53.228Z,100342
2014-07-29T06:23:10.199Z,100336
2014-07-29T06:23:27.793Z,100339
2014-07-29T06:23:45.387Z,100348
2014-07-29T06:24:02.355Z,100348
2014-07-29T06:24:20.576Z,100342
2014-07-29T06:24:37.670Z,100336
2014-07-29T06:24:53.998Z,100339
2014-07-29T06:25:12.219Z,100351
2014-07-29T06:25:29.813Z,100342
2014-07-29T06:25:48.031Z,100339
2014-07-29T06:26:05.609Z,100351
2014-07-29T06:26:22.579Z,100336
2014-07-29T06:26:40.157Z,100351
2014-07-29T06:26:57.751Z,100345
2014-07-29T06:27:14.706Z,100339
2014-07-29T06:27:32.925Z,100342
2014-07-29T06:27:50.519Z,100339
2014-07-29T06:28:08.737Z,100345
2014-07-29T06:28:26.959Z,100348
2014-07-29T16:04:03.257Z,100136
2014-07-29T16:04:19.601Z,100130
2014-07-29T16:04:37.820Z,100122
2014-07-29T16:04:55.415Z,100127
2014-07-29T16:05:13.009Z,100133
2014-07-29T16:05:31.212Z,100130
2014-07-29T16:05:48.165Z,100130
2014-07-29T16:06:05.746Z,100130
2014-07-29T16:06:23.964Z,100130
2014-07-29T16:06:41.574Z,100127
2014-07-29T16:06:59.154Z,100133
2014-07-29T16:07:17.373Z,100127
2014-07-29T16:07:34.341Z,100139
2014-07-29T16:07:51.294Z,100125
2014-07-29T16:08:08.890Z,100130
2014-07-29T16:08:25.843Z,100125
2014-07-29T16:08:44.062Z,100130
2014-07-29T16:09:01.658Z,100122
2014-07-29T16:09:17.986Z,100127
2014-07-29T16:09:36.205Z,100127
2014-07-29T16:09:54.423Z,100124
2014-07-29T16:10:12.004Z,100124
2014-07-29T16:10:30.222Z,100127
2014-07-29T16:10:47.800Z,100119
2014-07-29T16:11:04.755Z,100124
2014-07-29T16:11:22.348Z,100133
2014-07-29T16:11:39.942Z,100125
2014-07-29T16:11:57.536Z,100119
2014-07-29T16:12:15.117Z,100128
2014-07-29T16:12:32.711Z,100125
2014-07-29T16:12:50.929Z,100122
2014-07-29T16:13:09.150Z,100128
2014-07-29T16:13:27.510Z,100131
2014-07-29T16:13:45.088Z,100122
2014-07-29T16:14:02.697Z,100125
2014-07-29T16:56:22.420Z,100110
2014-07-29T16:56:39.998Z,100101
2014-07-29T16:56:57.593Z,100104
2014-07-29T16:57:15.796Z,100107
2014-07-29T16:57:33.389Z,100110
2014-07-29T16:57:50.986Z,100113
2014-07-29T16:58:08.580Z,100110
2014-07-29T16:58:26.158Z,100113
2014-07-29T16:58:44.377Z,100104
2014-07-29T16:59:02.598Z,100113
2014-07-29T16:59:20.801Z,100113
2014-07-29T16:59:39.019Z,100104
2014-07-29T16:59:56.614Z,100110
2014-07-29T17:00:14.208Z,100119
2014-07-29T17:00:31.927Z,100110
2014-07-29T17:00:50.270Z,100113
2014-07-29T17:01:07.242Z,100101
2014-07-29T17:01:25.461Z,100116
2014-07-29T17:01:43.039Z,100104
2014-07-29T17:02:01.259Z,100113
2014-07-29T17:02:18.228Z,100113
2014-07-29T17:02:35.806Z,100107
2014-07-29T17:02:53.399Z,100107
2014-07-29T17:03:10.996Z,100107
2014-07-29T17:03:28.590Z,100093
2014-07-29T17:03:46.793Z,100107
2014-07-29T17:04:04.529Z,100107
2014-07-29T17:04:22.248Z,100104
2014-07-29T17:04:40.467Z,100096
2014-07-29T17:04:58.045Z,100101
2014-07-29T17:05:16.265Z,100099
2014-07-29T17:05:33.859Z,100101
2014-07-29T17:05:51.452Z,100096
2014-07-29T17:06:08.408Z,100101
2014-07-29T17:06:26.627Z,100096
2014-07-29T17:06:44.846Z,100101
2014-07-29T17:07:04.002Z,100090
2014-07-29T17:07:21.598Z,100099
2014-07-29T17:07:38.567Z,100093
2014-07-29T17:07:56.801Z,100099
2014-07-29T17:08:15.130Z,100101
2014-07-29T17:08:33.349Z,100101
2014-07-29T17:08:50.943Z,100096
2014-07-29T17:09:07.896Z,100087
2014-07-29T17:09:25.492Z,100099
2014-07-29T17:09:43.835Z,100093
2014-07-29T17:10:01.429Z,100087
2014-07-29T17:10:19.009Z,100101
2014-07-29T17:10:37.244Z,100096
2014-07-29T17:10:54.822Z,100093
2014-07-29T17:11:12.415Z,100093
2014-07-29T17:11:30.622Z,100087
2014-07-29T17:11:47.606Z,100087
2014-07-29T17:12:05.184Z,100087
2014-07-29T17:12:21.529Z,100093
2014-07-29T17:12:39.732Z,100087
2014-07-29T17:12:58.076Z,100087
2014-07-29T17:13:16.294Z,100087
2014-07-29T17:13:34.516Z,100099
2014-07-29T17:13:52.110Z,100090
2014-07-29T17:14:09.063Z,100087
2014-07-29T17:14:27.283Z,100087
2014-07-29T17:15:06.658Z,100093
2014-07-29T17:15:24.255Z,100101
2014-07-29T17:15:42.458Z,100101
2014-07-29T17:16:00.051Z,100093
2014-07-29T17:16:17.630Z,100093
2014-07-29T17:16:35.224Z,100087
2014-07-29T17:16:52.802Z,100087
2014-07-29T17:17:09.771Z,100087
2014-07-29T17:17:27.367Z,100084
2014-07-29T17:17:45.570Z,100090
2014-07-29T17:18:01.898Z,100084
2014-07-29T17:18:19.492Z,100075
2014-07-29T17:18:37.088Z,100084
2014-07-29T17:18:55.291Z,100078
2014-07-29T17:19:12.900Z,100081
2014-07-29T17:19:31.121Z,100087
2014-07-29T17:19:49.324Z,100081
2014-07-29T17:20:06.918Z,100087
2014-07-29T17:20:25.137Z,100081
2014-07-29T17:20:42.107Z,100081
2014-07-29T17:20:59.076Z,100087
2014-07-29T17:21:17.279Z,100078
2014-07-29T17:21:35.501Z,100081
2014-07-29T17:21:53.079Z,100078
2014-07-29T17:22:10.673Z,100081
2014-07-29T17:22:28.267Z,100087
2014-07-29T17:22:45.861Z,100081
2014-07-29T17:23:04.064Z,100081
2014-07-29T17:23:22.283Z,100087
2014-07-29T17:23:40.004Z,100087
2014-07-29T17:23:58.223Z,100081
2014-07-29T17:24:15.191Z,100081
2014-07-29T17:24:33.410Z,100087
2014-07-29T17:24:51.006Z,100087
2014-07-29T17:25:09.209Z,100070
2014-07-29T17:25:26.803Z,100078
2014-07-29T17:25:45.024Z,100078
2014-07-29T17:26:02.617Z,100084
2014-07-29T17:26:20.820Z,100081
2014-07-29T17:26:38.557Z,100087
2014-07-29T17:26:56.135Z,100090
2014-07-29T17:27:13.713Z,100081
2014-07-29T17:27:31.932Z,100081
2014-07-29T17:27:49.528Z,100087
2014-07-29T17:28:07.106Z,100087
2014-07-29T17:28:24.840Z,100090
2014-07-29T17:28:42.420Z,100081
2014-07-29T17:29:00.639Z,100090
2014-07-29T17:29:18.358Z,100087
2014-07-29T17:29:35.313Z,100087
2014-07-29T17:29:52.266Z,100090
2014-07-29T17:30:09.235Z,100090
2014-07-29T17:30:27.453Z,100096
2014-07-29T17:30:45.049Z,100090
2014-07-29T17:31:02.002Z,100096
2014-07-29T17:31:20.221Z,100084
2014-07-29T17:31:38.442Z,100096
2014-07-29T17:31:55.395Z,100093
2014-07-29T17:32:13.004Z,100093
2014-07-29T17:32:30.582Z,100090
2014-07-29T17:32:48.802Z,100090
2014-07-29T17:33:05.130Z,100093
2014-07-29T17:33:23.349Z,100096
2014-07-29T17:33:41.085Z,100093
2014-07-29T17:33:59.304Z,100096
2014-07-29T17:34:16.882Z,100093
2014-07-29T17:35:04.573Z,100093
2014-07-29T17:35:20.901Z,100096
2014-07-29T17:35:38.621Z,100084
2014-07-29T17:35:56.355Z,100099
2014-07-29T17:36:13.933Z,100096
2014-07-29T17:36:31.527Z,100087
2014-07-29T17:36:49.123Z,100101
2014-07-29T17:37:06.716Z,100101
2014-07-29T17:37:24.935Z,100101
2014-07-29T17:37:41.890Z,100104
2014-07-29T17:38:00.234Z,100101
2014-07-29T17:38:17.828Z,100110
2014-07-29T17:38:35.422Z,100096
2014-07-29T17:38:53.783Z,100101
2014-07-29T17:39:10.752Z,100101
2014-07-29T17:39:28.955Z,100104
2014-07-29T17:39:46.551Z,100104
2014-07-29T17:40:04.129Z,100113
2014-07-29T17:40:21.722Z,100101
2014-07-29T17:40:39.316Z,100110
2014-07-29T17:40:56.896Z,100101
2014-07-29T17:41:15.115Z,100110
2014-07-29T17:41:32.084Z,100101
2014-07-29T17:41:49.664Z,100107
2014-07-29T17:42:07.242Z,100110
2014-07-29T17:42:25.461Z,100110
2014-07-29T17:42:43.055Z,100104
2014-07-29T17:43:00.697Z,100104
2014-07-29T17:43:19.041Z,100110
2014-07-29T17:43:37.275Z,100113
2014-07-29T17:43:55.480Z,100110
2014-07-29T17:44:12.434Z,100107
2014-07-29T17:44:30.027Z,100116
2014-07-29T17:44:46.357Z,100107
2014-07-29T17:45:04.576Z,100113
2014-07-29T17:45:21.529Z,100113
2014-07-29T17:45:39.123Z,100113
2014-07-29T17:45:56.703Z,100116
2014-07-29T17:46:13.656Z,100107
2014-07-29T17:46:32.016Z,100113
2014-07-29T17:46:49.594Z,100104
2014-07-29T17:47:07.815Z,100110
2014-07-29T17:47:25.408Z,100110
2014-07-29T17:47:42.377Z,100110
2014-07-29T17:47:59.332Z,100113
2014-07-29T17:48:16.910Z,100125
2014-07-29T17:48:34.504Z,100116
2014-07-29T17:48:52.098Z,100116
2014-07-29T17:49:10.303Z,100122
2014-07-29T17:49:27.881Z,100107
2014-07-29T17:49:45.475Z,100116
2014-07-29T17:50:03.696Z,100116
2014-07-29T17:50:21.274Z,100116
2014-07-29T17:50:38.867Z,100107
2014-07-29T17:50:57.086Z,100119
2014-07-29T17:51:14.666Z,100113
2014-07-29T17:51:33.057Z,100113
2014-07-29T17:51:51.244Z,100122
2014-07-29T17:52:08.278Z,100116
2014-07-29T17:52:26.496Z,100116
2014-07-29T17:52:44.700Z,100116
2014-07-29T17:53:01.793Z,100119
2014-07-29T17:53:19.389Z,100122
2014-07-29T17:53:37.592Z,100119
2014-07-29T17:53:55.186Z,100128
2014-07-29T17:54:13.406Z,100119
2014-07-29T17:54:31.609Z,100119
2014-07-29T17:54:49.328Z,100122
2014-07-29T17:55:06.924Z,100122
2014-07-29T17:55:25.346Z,100104
2014-07-29T17:55:42.924Z,100122
2014-07-29T17:55:59.893Z,100128
2014-07-29T17:56:16.848Z,100119
2014-07-29T17:56:34.426Z,100116
2014-07-29T17:56:51.395Z,100119
2014-07-29T17:57:08.975Z,100122
2014-07-29T17:57:27.194Z,100113
2014-07-29T17:57:45.413Z,100119
2014-07-29T17:58:02.991Z,100122
2014-07-29T17:58:20.571Z,100113
2014-07-29T17:58:38.165Z,100107
2014-07-29T17:58:56.383Z,100110
2014-07-29T17:59:13.963Z,100113
2014-07-29T17:59:31.556Z,100113
2014-07-29T17:59:49.775Z,100104
2014-07-29T18:00:06.728Z,100113
2014-07-29T18:00:23.683Z,100107
2014-07-29T18:00:41.918Z,100107
2014-07-29T18:00:59.496Z,100110
2014-07-29T18:01:47.311Z,100110
2014-07-29T18:02:05.514Z,100090
2014-07-29T18:02:23.781Z,100101
2014-07-29T18:02:40.734Z,100101
2014-07-29T18:02:58.328Z,100101
2014-07-29T18:03:15.297Z,100096
2014-07-29T18:03:31.628Z,100101
2014-07-29T18:03:48.581Z,100101
2014-07-29T18:04:06.175Z,100090
2014-07-29T18:04:23.144Z,100096
2014-07-29T18:04:40.738Z,100099
2014-07-29T18:04:58.316Z,100099
2014-07-29T18:05:15.910Z,100093
2014-07-29T18:05:33.021Z,100090
2014-07-29T18:05:50.600Z,100093
2014-07-29T18:06:08.803Z,100093
2014-07-29T18:06:26.414Z,100078
2014-07-29T18:06:44.633Z,100090
2014-07-29T18:07:02.352Z,100084
2014-07-29T18:07:20.697Z,100078
2014-07-29T18:07:38.932Z,100081
2014-07-29T18:07:57.135Z,100070
2014-07-29T18:08:14.729Z,100075
2014-07-29T18:08:32.949Z,100081
2014-07-29T18:08:50.527Z,100075
2014-07-29T18:09:08.762Z,100067
2014-07-29T18:09:26.984Z,100067
2014-07-29T18:09:44.702Z,100070
2014-07-29T18:10:01.702Z,100070
2014-07-29T18:10:19.905Z,100075
2014-07-29T18:10:36.861Z,100067
2014-07-29T18:10:53.204Z,100075
2014-07-29T18:11:10.157Z,100070
2014-07-29T18:11:27.127Z,100062
2014-07-29T18:11:45.346Z,100067
2014-07-29T18:12:02.940Z,100053
2014-07-29T18:12:20.533Z,100062
2014-07-29T18:12:38.129Z,100059
2014-07-29T18:12:55.723Z,100059
2014-07-29T18:13:14.067Z,100064
2014-07-29T18:13:31.662Z,100059
2014-07-29T18:13:49.881Z,100053
2014-07-29T18:14:08.084Z,100056
2014-07-29T18:14:26.319Z,100059
2014-07-29T18:14:44.664Z,100064
2014-07-29T18:15:01.633Z,100070
2014-07-29T18:15:18.586Z,100075
2014-07-29T18:15:36.948Z,100070
2014-07-29T18:15:55.182Z,100070
2014-07-29T18:16:12.760Z,100067
2014-07-29T18:16:29.729Z,100064
2014-07-29T18:16:48.090Z,100075
2014-07-29T18:17:06.512Z,100075
2014-07-29T18:17:24.731Z,100075
2014-07-29T18:17:42.452Z,100075
2014-07-29T18:18:00.655Z,100081
2014-07-29T18:18:18.874Z,100078
2014-07-29T18:18:37.094Z,100070
2014-07-29T18:18:55.438Z,100081
2014-07-29T18:19:13.672Z,100087
2014-07-29T18:19:29.376Z,100075
2014-07-29T18:19:47.596Z,100075
2014-07-29T18:20:05.315Z,100070
2014-07-29T18:20:23.534Z,100087
2014-07-29T18:20:41.755Z,100081
2014-07-29T18:20:59.973Z,100084
2014-07-29T18:21:17.567Z,100093
2014-07-29T18:21:34.676Z,100098
2014-07-29T18:21:52.257Z,100087
2014-07-29T18:22:10.600Z,100087
2014-07-29T18:22:27.569Z,100096
2014-07-29T18:22:45.165Z,100087
2014-07-29T18:23:02.759Z,100093
2014-07-29T18:23:20.352Z,100093
2014-07-29T18:23:38.714Z,100090
2014-07-29T18:23:56.932Z,100096
2014-07-29T18:24:13.901Z,100087
2014-07-29T18:24:31.495Z,100087
2014-07-29T18:24:49.699Z,100084
2014-07-29T18:25:07.918Z,100096
2014-07-29T18:25:25.512Z,100087
2014-07-29T18:25:42.482Z,100090
2014-07-29T18:26:00.060Z,100087
2014-07-29T18:26:18.420Z,100090
2014-07-29T18:26:35.391Z,100090
2014-07-29T18:26:53.609Z,100093
2014-07-29T18:27:11.953Z,100084
2014-07-29T18:27:29.547Z,100084
2014-07-29T18:27:47.143Z,100090
2014-07-29T18:28:04.736Z,100084
2014-07-29T18:28:21.689Z,100081
2014-07-29T18:28:39.285Z,100090
2014-07-29T18:28:57.504Z,100081
2014-07-29T18:29:14.457Z,100087
2014-07-29T18:29:32.051Z,100101
2014-07-29T18:29:49.772Z,100093
2014-07-29T18:30:07.990Z,100084
2014-07-29T18:30:26.350Z,100081
2014-07-29T18:30:44.555Z,100087
2014-07-29T18:31:02.149Z,100084
2014-07-29T18:31:20.367Z,100081
2014-07-29T18:31:38.587Z,100078
2014-07-29T18:31:56.165Z,100087
2014-07-29T18:32:13.821Z,100087
2014-07-29T18:32:32.071Z,100075
2014-07-29T18:32:49.042Z,100078
2014-07-29T18:33:06.636Z,100081
2014-07-29T18:33:24.855Z,100078
2014-07-29T18:33:42.576Z,100081
2014-07-29T18:34:00.311Z,100078
2014-07-29T18:34:18.545Z,100075
2014-07-29T18:34:36.186Z,100078
2014-07-29T18:34:53.749Z,100075
2014-07-29T18:35:11.968Z,100078
2014-07-29T18:35:29.562Z,100078
2014-07-29T18:35:47.784Z,100078
2014-07-29T18:36:05.377Z,100078
2014-07-29T18:36:23.596Z,100075
2014-07-29T18:36:41.221Z,100070
2014-07-29T18:36:58.817Z,100070
2014-07-29T18:37:16.411Z,100078
2014-07-29T18:37:33.379Z,100070
2014-07-29T18:37:51.600Z,100075
2014-07-29T18:38:09.194Z,100064
2014-07-29T18:38:26.272Z,100067
2014-07-29T18:38:44.475Z,100078
2014-07-29T18:39:00.821Z,100075
2014-07-29T18:39:18.555Z,100070
2014-07-29T18:39:35.649Z,100075
2014-07-29T18:39:51.353Z,100064
2014-07-29T18:40:09.587Z,100075
2014-07-29T18:40:27.931Z,100067
2014-07-29T18:40:44.275Z,100070
2014-07-29T18:41:02.497Z,100067
2014-07-29T18:41:20.715Z,100070
2014-07-29T18:41:37.684Z,100075
2014-07-29T18:41:54.638Z,100075
2014-07-29T18:42:12.232Z,100067
2014-07-29T18:42:30.451Z,100078
2014-07-29T18:42:47.404Z,100081
2014-07-29T18:43:04.985Z,100062
2014-07-29T18:43:21.954Z,100081
2014-07-29T18:43:38.282Z,100078
2014-07-29T18:43:56.502Z,100067
2014-07-29T18:44:14.095Z,100075
2014-07-29T18:44:31.674Z,100070
2014-07-29T18:44:49.267Z,100075
2014-07-29T18:45:06.254Z,100075
2014-07-29T18:45:24.472Z,100070
2014-07-29T18:45:42.691Z,100081
2014-07-29T18:46:00.913Z,100070
2014-07-29T18:46:18.632Z,100070
2014-07-29T18:46:36.225Z,100067
2014-07-29T18:46:54.444Z,100062
2014-07-29T18:47:12.040Z,100078
2014-07-29T18:47:29.634Z,100081
2014-07-29T18:47:47.852Z,100078
2014-07-29T18:48:05.572Z,100081
2014-07-29T18:48:23.791Z,100081
2014-07-29T18:48:41.369Z,100070
2014-07-29T18:48:58.338Z,100064
2014-07-29T18:49:16.060Z,100075
2014-07-29T18:49:33.028Z,100081
2014-07-29T18:49:50.622Z,100075
2014-07-29T18:50:07.576Z,100065
2014-07-29T18:50:24.545Z,100075
2014-07-29T18:50:41.514Z,100075
2014-07-29T18:50:59.092Z,100075
2014-07-29T18:51:16.704Z,100075
2014-07-29T18:51:34.923Z,100078
2014-07-29T18:51:51.876Z,100075
2014-07-29T18:52:08.860Z,100078
2014-07-29T18:52:25.815Z,100075
2014-07-29T18:52:42.783Z,100078
2014-07-29T18:53:01.127Z,100084
2014-07-29T18:53:18.082Z,100075
2014-07-29T18:53:35.692Z,100078
2014-07-29T18:53:53.910Z,100084
2014-07-29T18:54:41.725Z,100093
2014-07-29T18:54:59.944Z,100087
2014-07-29T18:55:17.539Z,100078
2014-07-29T18:55:35.117Z,100093
2014-07-29T18:55:51.461Z,100084
2014-07-29T18:56:07.789Z,100090
2014-07-29T18:56:24.761Z,100093
2014-07-29T18:56:41.714Z,100093
2014-07-29T18:56:59.933Z,100090
2014-07-29T18:57:16.888Z,100093
2014-07-29T18:57:35.122Z,100096
2014-07-29T18:57:53.357Z,100096
2014-07-29T18:58:11.560Z,100096
2014-07-29T18:58:29.155Z,100107
2014-07-29T18:58:47.358Z,100098
2014-07-29T18:59:05.092Z,100101
2014-07-29T18:59:23.313Z,100101
2014-07-29T18:59:41.532Z,100101
2014-07-29T18:59:59.125Z,100104
2014-07-29T19:00:16.719Z,100101
2014-07-29T19:00:34.315Z,100107
2014-07-29T19:00:51.409Z,100096
2014-07-29T19:01:09.643Z,100098
2014-07-29T19:01:27.239Z,100104
2014-07-29T19:01:45.458Z,100104
2014-07-29T19:02:03.036Z,100107
2014-07-29T19:02:20.645Z,100104
2014-07-29T19:02:38.241Z,100101
2014-07-29T19:02:56.460Z,100101
2014-07-29T19:03:13.428Z,100101
2014-07-29T19:03:30.383Z,100101
2014-07-29T19:03:47.337Z,100098
2014-07-29T19:04:04.930Z,100104
2014-07-29T19:04:23.149Z,100096
2014-07-29T19:04:40.745Z,100110
2014-07-29T19:04:58.339Z,100104
2014-07-29T19:05:16.557Z,100101
2014-07-29T19:05:34.762Z,100107
2014-07-29T19:05:52.356Z,100101
2014-07-29T19:06:09.934Z,100104
2014-07-29T19:06:27.528Z,100101
2014-07-29T19:06:44.499Z,100104
2014-07-29T19:07:02.077Z,100104
2014-07-29T19:07:20.296Z,100101
2014-07-29T19:07:37.890Z,100098
2014-07-29T19:07:54.219Z,100096
2014-07-29T19:08:11.172Z,100093
2014-07-29T19:08:28.765Z,100096
2014-07-29T19:08:46.987Z,100096
2014-07-29T19:09:05.222Z,100104
2014-07-29T19:09:22.784Z,100101
2014-07-29T19:09:40.395Z,100101
2014-07-29T19:09:58.739Z,100096
2014-07-29T19:10:16.958Z,100093
2014-07-29T19:10:33.929Z,100098
2014-07-29T19:10:51.538Z,100084
2014-07-29T19:11:09.757Z,100081
2014-07-29T19:11:27.351Z,100093
2014-07-29T19:11:45.571Z,100096
2014-07-29T19:12:03.181Z,100087
2014-07-29T19:12:21.384Z,100096
2014-07-29T19:12:38.494Z,100104
2014-07-29T19:12:56.072Z,100098
2014-07-29T19:13:14.291Z,100090
2014-07-29T19:13:31.885Z,100096
2014-07-29T19:13:49.481Z,100090
2014-07-29T19:14:07.074Z,100096
2014-07-29T19:14:24.793Z,100090
2014-07-29T19:14:43.014Z,100093
2014-07-29T19:15:00.623Z,100096
2014-07-29T19:15:18.826Z,100096
2014-07-29T19:15:37.047Z,100093
2014-07-29T19:15:54.641Z,100093
2014-07-29T19:16:12.860Z,100093
2014-07-29T19:16:29.828Z,100093
2014-07-29T19:16:47.408Z,100087
2014-07-29T19:17:03.752Z,100096
2014-07-29T19:17:50.832Z,100090
2014-07-29T19:18:07.801Z,100087
2014-07-29T19:18:25.395Z,100087
2014-07-29T19:18:42.350Z,100087
2014-07-29T19:18:59.944Z,100087
2014-07-29T19:19:18.162Z,100087
2014-07-29T19:19:36.382Z,100084
2014-07-29T19:19:53.351Z,100098
2014-07-29T19:20:10.945Z,100096
2014-07-29T19:20:28.523Z,100084
2014-07-29T19:20:46.119Z,100084
2014-07-29T19:21:03.837Z,100093
2014-07-29T19:21:21.431Z,100090
2014-07-29T19:21:38.402Z,100090
2014-07-29T19:21:55.355Z,100087
2014-07-29T19:22:12.949Z,100093
2014-07-29T19:22:29.917Z,100093
2014-07-29T19:22:48.263Z,100093
2014-07-29T19:23:06.482Z,100090
2014-07-29T19:23:24.701Z,100093
2014-07-29T19:23:42.921Z,100090
2014-07-29T19:24:01.265Z,100096
2014-07-29T19:24:19.500Z,100084
2014-07-29T19:24:37.095Z,100093
2014-07-29T19:24:54.673Z,100093
2014-07-29T19:25:12.892Z,100093
2014-07-29T19:25:31.111Z,100084
2014-07-29T19:25:49.332Z,100084
2014-07-29T19:26:06.925Z,100093
2014-07-29T19:26:24.519Z,100098
2014-07-29T19:26:42.881Z,100101
2014-07-29T19:27:01.099Z,100098
2014-07-29T19:27:19.302Z,100096
2014-07-29T19:27:36.898Z,100090
2014-07-29T19:27:55.133Z,100087
2014-07-29T19:28:13.351Z,100093
2014-07-29T19:28:30.945Z,100093
2014-07-29T19:28:48.525Z,100093
2014-07-29T19:29:06.744Z,100096
2014-07-29T19:29:25.119Z,100090
2014-07-29T19:29:42.715Z,100084
2014-07-29T19:29:59.683Z,100087
2014-07-29T19:30:17.277Z,100096
2014-07-29T19:30:35.514Z,100098
2014-07-29T19:30:53.107Z,100101
2014-07-29T19:31:10.701Z,100096
2014-07-29T19:31:28.420Z,100093
2014-07-29T19:31:45.375Z,100098
2014-07-29T19:32:02.969Z,100096
2014-07-29T19:32:19.922Z,100101
2014-07-29T19:32:38.143Z,100093
2014-07-29T19:32:55.736Z,100090
2014-07-29T19:33:12.830Z,100090
2014-07-29T19:33:29.799Z,100098
2014-07-29T19:33:47.379Z,100084
2014-07-29T19:34:04.973Z,100096
2014-07-29T19:34:22.566Z,100096
2014-07-29T19:34:40.147Z,100084
2014-07-29T19:34:57.740Z,100090
2014-07-29T19:35:14.693Z,100096
2014-07-29T19:35:32.287Z,100093
2014-07-29T19:35:49.882Z,100087
2014-07-29T19:36:06.210Z,100096
2014-07-29T19:36:23.804Z,100090
2014-07-29T19:36:41.401Z,100087
2014-07-29T19:36:58.979Z,100098
2014-07-29T19:37:16.572Z,100093
2014-07-29T19:37:34.166Z,100093
2014-07-29T19:37:51.745Z,100096
2014-07-29T19:38:09.339Z,100098
2014-07-29T19:38:26.308Z,100101
2014-07-29T19:38:43.889Z,100096
2014-07-29T19:39:02.108Z,100096
2014-07-29T19:39:20.326Z,100096
2014-07-29T19:39:37.295Z,100093
2014-07-29T19:39:54.890Z,100096
2014-07-29T19:40:12.609Z,100098
2014-07-29T19:40:30.202Z,100096
2014-07-29T19:40:47.159Z,100098
2014-07-29T19:41:04.752Z,100101
2014-07-29T19:41:22.346Z,100093
2014-07-29T19:41:40.065Z,100107
2014-07-29T19:41:57.660Z,100098
2014-07-29T19:42:15.253Z,100101
2014-07-29T19:42:32.847Z,100093
2014-07-29T19:42:51.193Z,100096
2014-07-29T19:43:09.412Z,100093
2014-07-29T19:43:27.005Z,100090
2014-07-29T19:43:45.349Z,100098
2014-07-29T19:44:02.304Z,100078
2014-07-29T19:44:19.273Z,100087
2014-07-29T19:44:37.492Z,100096
2014-07-29T19:44:54.448Z,100087
2014-07-29T19:45:12.042Z,100087
2014-07-29T19:45:28.995Z,100096
2014-07-29T19:45:47.213Z,100090
2014-07-29T19:46:04.808Z,100084
2014-07-29T19:46:21.777Z,100075
2014-07-29T19:46:38.105Z,100087
2014-07-29T19:46:55.076Z,100081
2014-07-29T19:47:13.435Z,100081
2014-07-29T19:47:31.029Z,100084
2014-07-29T19:47:47.357Z,100084
2014-07-29T19:48:05.890Z,100081
2014-07-29T19:48:22.859Z,100075
2014-07-29T19:48:40.437Z,100078
2014-07-29T19:48:57.406Z,100081
2014-07-29T19:49:15.627Z,100087
2014-07-29T19:49:31.955Z,100070
2014-07-29T19:49:49.549Z,100078
2014-07-29T19:50:07.130Z,100084
2014-07-29T19:50:24.098Z,100084
2014-07-29T19:50:42.317Z,100081
2014-07-29T19:50:59.911Z,100067
2014-07-29T19:51:18.131Z,100090
2014-07-29T19:51:36.349Z,100081
2014-07-29T19:51:54.568Z,100078
2014-07-29T19:52:10.898Z,100081
2014-07-29T19:52:27.992Z,100090
2014-07-29T19:52:46.211Z,100065
2014-07-29T19:53:03.805Z,100070
2014-07-29T19:53:20.761Z,100081
2014-07-29T19:53:38.979Z,100087
2014-07-29T19:53:57.198Z,100067
2014-07-29T19:54:14.777Z,100078
2014-07-29T19:54:31.746Z,100067
2014-07-29T19:54:49.340Z,100070
2014-07-29T19:55:05.668Z,100075
2014-07-29T19:55:22.640Z,100084
2014-07-29T19:55:38.968Z,100078
2014-07-29T19:55:57.187Z,100081
2014-07-29T19:56:13.530Z,100087
2014-07-29T19:56:31.734Z,100078
2014-07-29T19:56:49.953Z,100070
2014-07-29T19:57:06.922Z,100078
2014-07-29T19:57:25.268Z,100070
2014-07-29T19:57:42.861Z,100070
2014-07-29T19:57:59.830Z,100078
2014-07-29T19:58:17.424Z,100062
2014-07-29T19:58:34.396Z,100081
2014-07-29T19:58:51.364Z,100067
2014-07-29T19:59:08.318Z,100078
2014-07-29T19:59:25.912Z,100070
2014-07-29T19:59:44.256Z,100081
2014-07-29T20:00:02.475Z,100070
2014-07-29T20:00:20.115Z,100084
2014-07-29T20:00:36.462Z,100070
2014-07-29T20:00:54.681Z,100075
2014-07-29T20:01:12.275Z,100075
2014-07-29T20:01:29.869Z,100070
2014-07-29T20:01:48.073Z,100078
2014-07-29T20:02:05.791Z,100075
2014-07-29T20:02:22.760Z,100067
2014-07-29T20:02:40.356Z,100067
2014-07-29T20:02:57.934Z,100070
2014-07-29T20:03:14.903Z,100078
2014-07-29T20:03:32.499Z,100062
2014-07-29T20:03:50.093Z,100070
2014-07-29T20:04:07.687Z,100075
2014-07-29T20:04:24.656Z,100081
2014-07-29T20:04:41.626Z,100065
2014-07-29T20:04:59.845Z,100078
2014-07-29T20:05:17.423Z,100075
2014-07-29T20:05:35.034Z,100070
2014-07-29T20:05:52.596Z,100067
2014-07-29T20:06:10.206Z,100062
2014-07-29T20:06:27.174Z,100075